Time;durP1;ratioP1;P1;durP2;ratioP2;P2;SDS_P1;SDS_P2;PMS_P1;PMS_P2;Temp;Humidity;BMP_temperature;BMP_pressure;BME280_temperature;BME280_humidity;BME280_pressure;Samples;Min_cycle;Max_cycle;Signal;HPM_P1;HPM_P2
2022/08/24 00:01:13;;;;;;;5.50;2.00;;;20.60;63.80;;;;;;4998680;28;20463;-72
2022/08/24 00:03:41;;;;;;;4.25;1.75;;;20.60;63.60;;;;;;4994678;28;20045;-71
2022/08/24 00:06:10;;;;;;;2.50;1.60;;;20.60;64.10;;;;;;5013831;28;20499;-71
2022/08/24 00:08:37;;;;;;;4.50;1.52;;;20.50;64.00;;;;;;5012303;28;20101;-71
2022/08/24 00:11:05;;;;;;;4.50;1.98;;;20.50;64.50;;;;;;4994869;28;20069;-71
2022/08/24 00:13:33;;;;;;;4.43;1.52;;;20.50;64.60;;;;;;5044152;28;20061;-71
2022/08/24 00:16:01;;;;;;;5.88;1.58;;;20.50;64.00;;;;;;5036726;28;20053;-71
2022/08/24 00:18:28;;;;;;;7.45;1.60;;;20.50;64.20;;;;;;5017585;28;20380;-71
2022/08/24 00:20:55;;;;;;;8.63;1.70;;;20.50;64.30;;;;;;5005336;28;20460;-71
2022/08/24 00:23:22;;;;;;;2.60;1.40;;;20.40;64.70;;;;;;5008982;28;20046;-72
2022/08/24 00:25:50;;;;;;;5.82;1.58;;;20.30;65.40;;;;;;5014746;28;20053;-72
2022/08/24 00:28:17;;;;;;;6.22;1.60;;;20.30;66.00;;;;;;5016380;28;20070;-72
2022/08/24 00:30:44;;;;;;;3.88;1.67;;;20.30;65.70;;;;;;4992965;28;20113;-71
2022/08/24 00:33:09;;;;;;;5.18;1.65;;;20.20;66.00;;;;;;4999295;28;20042;-72
2022/08/24 00:35:35;;;;;;;4.80;1.90;;;20.20;65.90;;;;;;5017030;28;20455;-72
2022/08/24 00:38:02;;;;;;;4.10;1.80;;;20.10;66.30;;;;;;5009965;28;20099;-71
2022/08/24 00:40:35;;;;;;;4.43;1.50;;;20.20;66.10;;;;;;5011002;28;20049;-71
2022/08/24 00:43:04;;;;;;;3.95;1.83;;;20.00;66.60;;;;;;5014846;28;20129;-71
2022/08/24 00:45:34;;;;;;;4.47;1.70;;;19.90;66.20;;;;;;5001637;28;20049;-71
2022/08/24 00:48:07;;;;;;;4.05;1.70;;;19.90;66.60;;;;;;4993098;28;20069;-72
2022/08/24 00:51:04;;;;;;;7.55;1.98;;;19.80;66.80;;;;;;5012851;28;20045;-72
2022/08/24 00:53:53;;;;;;;4.22;1.80;;;19.80;67.10;;;;;;5013002;28;20045;-71
2022/08/24 00:56:25;;;;;;;5.93;1.83;;;19.80;67.30;;;;;;5024254;28;20042;-71
2022/08/24 00:59:13;;;;;;;3.72;1.80;;;19.70;67.10;;;;;;5051213;28;20819;-71
2022/08/24 01:01:39;;;;;;;5.22;2.40;;;19.70;67.30;;;;;;5014512;28;20081;-71
2022/08/24 01:04:07;;;;;;;6.25;2.03;;;19.70;67.80;;;;;;5018120;28;20151;-71
2022/08/24 01:06:34;;;;;;;3.05;1.45;;;19.70;67.10;;;;;;5019363;28;20042;-70
2022/08/24 01:09:01;;;;;;;7.85;2.05;;;19.70;67.50;;;;;;5050110;28;20156;-71
2022/08/24 01:11:29;;;;;;;3.58;1.85;;;19.60;68.00;;;;;;5015017;28;20037;-70
2022/08/24 01:13:56;;;;;;;6.53;1.80;;;19.60;68.30;;;;;;5020987;28;20391;-71
2022/08/24 01:19:49;;;;;;;5.05;1.73;;;19.60;67.70;;;;;;5015282;28;20107;-71
2022/08/24 01:22:29;;;;;;;6.82;1.50;;;19.70;67.80;;;;;;4982608;28;20065;-70
2022/08/24 01:24:56;;;;;;;5.20;1.80;;;19.70;68.50;;;;;;5000839;28;20744;-70
2022/08/24 01:27:22;;;;;;;4.15;1.70;;;19.50;68.80;;;;;;5025794;28;20089;-71
2022/08/24 01:29:49;;;;;;;4.88;1.60;;;19.60;68.20;;;;;;5011766;28;20069;-71
2022/08/24 01:32:17;;;;;;;4.88;1.75;;;19.60;68.40;;;;;;5020853;28;20115;-71
2022/08/24 01:34:44;;;;;;;4.03;1.80;;;19.60;69.10;;;;;;5015252;28;20055;-71
2022/08/24 01:37:11;;;;;;;5.47;2.00;;;19.50;69.60;;;;;;5020063;28;20333;-70
2022/08/24 01:39:42;;;;;;;7.05;2.00;;;19.50;68.70;;;;;;5048033;28;20046;-70
2022/08/24 01:42:10;;;;;;;6.97;2.03;;;19.50;69.30;;;;;;5019381;28;20045;-70
2022/08/24 01:44:37;;;;;;;3.97;1.67;;;19.40;69.50;;;;;;5021186;28;20057;-72
2022/08/24 01:47:05;;;;;;;4.28;1.77;;;19.30;69.90;;;;;;5016215;28;20054;-70
2022/08/24 01:49:34;;;;;;;4.38;1.88;;;19.30;69.80;;;;;;5006846;28;20100;-72
2022/08/24 01:52:00;;;;;;;4.40;1.95;;;19.30;69.70;;;;;;5015360;28;20050;-71
2022/08/24 01:54:26;;;;;;;7.03;2.28;;;19.20;70.70;;;;;;5000745;28;20046;-73
2022/08/24 01:56:53;;;;;;;4.50;2.40;;;19.10;70.60;;;;;;5047133;28;20126;-70
2022/08/24 01:59:21;;;;;;;7.22;1.90;;;19.10;71.00;;;;;;5008733;28;20050;-70
2022/08/24 02:01:48;;;;;;;4.38;2.20;;;19.10;71.00;;;;;;4983832;28;20049;-70
2022/08/24 02:04:15;;;;;;;5.43;2.08;;;19.10;70.60;;;;;;4990608;28;20046;-71
2022/08/24 02:06:43;;;;;;;7.00;1.80;;;19.20;70.60;;;;;;4990481;28;20124;-70
2022/08/24 02:09:10;;;;;;;4.73;2.00;;;19.20;70.20;;;;;;5044599;28;20050;-71
2022/08/24 02:11:38;;;;;;;6.03;2.20;;;19.20;70.80;;;;;;4999941;28;20288;-71
2022/08/24 02:14:04;;;;;;;4.63;1.80;;;19.20;71.00;;;;;;4994766;28;20054;-71
2022/08/24 02:16:32;;;;;;;6.10;2.60;;;19.10;71.30;;;;;;5014762;28;20748;-72
2022/08/24 02:18:59;;;;;;;9.13;2.25;;;19.00;71.30;;;;;;5017669;28;20611;-71
2022/08/24 02:21:27;;;;;;;3.83;1.70;;;19.00;71.40;;;;;;4995870;28;20065;-71
2022/08/24 02:23:53;;;;;;;6.55;1.98;;;19.00;71.60;;;;;;5005217;28;20054;-70
2022/08/24 02:26:19;;;;;;;5.13;2.05;;;19.00;71.10;;;;;;5026785;28;20550;-70
2022/08/24 02:28:46;;;;;;;3.03;1.90;;;19.00;71.50;;;;;;5014348;28;20080;-71
2022/08/24 02:31:13;;;;;;;3.63;1.70;;;18.90;71.50;;;;;;5018270;28;20530;-71
2022/08/24 02:33:40;;;;;;;6.53;2.40;;;18.80;71.20;;;;;;5022068;28;20128;-71
2022/08/24 02:36:08;;;;;;;6.15;2.05;;;18.80;71.20;;;;;;4995130;28;20046;-70
2022/08/24 02:38:35;;;;;;;6.60;1.97;;;18.80;71.50;;;;;;5004344;28;20132;-70
2022/08/24 02:41:02;;;;;;;5.28;2.22;;;18.70;71.60;;;;;;4998347;28;20076;-71
2022/08/24 02:43:29;;;;;;;5.00;2.20;;;18.70;71.70;;;;;;4996207;28;20053;-70
2022/08/24 02:45:55;;;;;;;4.93;2.00;;;18.60;72.30;;;;;;5010608;28;20057;-70
2022/08/24 02:48:22;;;;;;;7.03;2.10;;;18.60;71.80;;;;;;5000831;28;20046;-71
2022/08/24 02:50:50;;;;;;;3.63;1.90;;;18.60;72.30;;;;;;5027670;28;20137;-71
2022/08/24 02:53:18;;;;;;;6.65;1.90;;;18.60;72.00;;;;;;5040227;28;20041;-71
2022/08/24 02:55:45;;;;;;;5.00;2.00;;;18.50;72.00;;;;;;5020670;28;20130;-71
2022/08/24 02:58:11;;;;;;;6.05;2.00;;;18.50;72.60;;;;;;5023093;28;20080;-71
2022/08/24 03:00:39;;;;;;;7.95;2.25;;;18.50;72.50;;;;;;5023663;28;20087;-71
2022/08/24 03:03:06;;;;;;;7.45;2.08;;;18.50;72.30;;;;;;5015650;28;20349;-71
2022/08/24 03:05:33;;;;;;;13.30;2.70;;;18.50;72.20;;;;;;5024527;28;20128;-71
2022/08/24 03:08:00;;;;;;;12.95;2.47;;;18.50;72.40;;;;;;4995097;28;20053;-70
2022/08/24 03:10:29;;;;;;;8.10;2.28;;;18.50;71.90;;;;;;4995195;28;20045;-71
2022/08/24 03:12:57;;;;;;;7.32;2.22;;;18.50;72.10;;;;;;5044050;28;20049;-71
2022/08/24 03:15:24;;;;;;;5.18;2.05;;;18.40;72.60;;;;;;4996112;28;20041;-71
2022/08/24 03:17:50;;;;;;;5.60;2.45;;;18.40;72.90;;;;;;5015344;28;20128;-71
2022/08/24 03:20:18;;;;;;;5.55;1.90;;;18.40;72.90;;;;;;5002686;28;20121;-71
2022/08/24 03:22:45;;;;;;;;;;;18.40;73.00;;;;;;4997887;28;20057;-71
2022/08/24 03:25:14;;;;;;;9.27;2.40;;;18.30;73.60;;;;;;4994600;28;19909;-70
2022/08/24 03:27:41;;;;;;;6.22;2.03;;;18.30;73.50;;;;;;5021138;28;20089;-71
2022/08/24 03:30:11;;;;;;;9.30;2.15;;;18.40;73.20;;;;;;5049595;28;20041;-71
2022/08/24 03:32:40;;;;;;;4.95;2.13;;;18.40;73.10;;;;;;5018927;28;20056;-71
2022/08/24 03:35:07;;;;;;;6.80;2.40;;;18.40;73.30;;;;;;5008371;28;20364;-72
2022/08/24 03:37:34;;;;;;;8.70;2.58;;;18.30;73.90;;;;;;5021718;28;20076;-70
2022/08/24 03:40:01;;;;;;;4.75;2.10;;;18.20;74.40;;;;;;5015151;28;20056;-71
2022/08/24 03:42:28;;;;;;;6.70;2.42;;;18.20;74.10;;;;;;4997812;28;20933;-71
2022/08/24 03:44:56;;;;;;;8.88;2.45;;;18.30;74.10;;;;;;5025748;28;20463;-72
2022/08/24 03:47:23;;;;;;;5.40;2.25;;;18.30;73.50;;;;;;5014628;28;20106;-71
2022/08/24 03:49:50;;;;;;;7.18;2.70;;;18.30;73.60;;;;;;5029558;28;20044;-71
2022/08/24 03:52:16;;;;;;;9.27;2.00;;;18.30;73.60;;;;;;5011286;28;20049;-70
2022/08/24 03:54:42;;;;;;;5.35;2.45;;;18.20;74.30;;;;;;5024774;28;20038;-70
2022/08/24 03:57:09;;;;;;;5.13;2.30;;;18.10;74.20;;;;;;5014196;28;20064;-71
2022/08/24 03:59:36;;;;;;;7.65;2.65;;;18.10;74.00;;;;;;5027409;28;20071;-71
2022/08/24 04:02:02;;;;;;;4.60;2.40;;;18.10;74.50;;;;;;4985889;28;20058;-72
2022/08/24 04:04:30;;;;;;;5.65;2.08;;;18.10;74.50;;;;;;5022573;28;20424;-71
2022/08/24 04:06:58;;;;;;;6.50;2.28;;;18.10;74.50;;;;;;5010257;28;20502;-71
2022/08/24 04:09:25;;;;;;;6.57;2.92;;;18.10;74.60;;;;;;5021963;28;20084;-71
2022/08/24 04:11:52;;;;;;;5.10;2.47;;;18.00;74.90;;;;;;5015180;28;20120;-71
2022/08/24 04:14:20;;;;;;;6.78;2.20;;;18.00;75.00;;;;;;5023251;28;20045;-71
2022/08/24 04:16:49;;;;;;;6.93;2.33;;;18.00;74.80;;;;;;4999035;28;20476;-71
2022/08/24 04:19:15;;;;;;;5.10;2.42;;;18.00;74.80;;;;;;5026872;28;20711;-71
2022/08/24 04:21:43;;;;;;;4.60;2.17;;;18.00;75.00;;;;;;5009386;28;20104;-71
2022/08/24 04:24:11;;;;;;;5.30;2.33;;;17.90;75.00;;;;;;5015238;28;20139;-71
2022/08/24 04:26:38;;;;;;;6.00;2.38;;;17.90;74.90;;;;;;5007166;28;20100;-71
2022/08/24 04:29:05;;;;;;;7.10;2.85;;;17.90;75.00;;;;;;5015812;28;20148;-71
2022/08/24 04:31:43;;;;;;;6.43;2.42;;;17.80;76.30;;;;;;5011706;28;20794;-71
2022/08/24 04:34:10;;;;;;;8.48;2.75;;;17.80;76.40;;;;;;5012827;28;20073;-71
2022/08/24 04:36:39;;;;;;;6.60;2.70;;;17.80;76.50;;;;;;5008692;28;20049;-71
2022/08/24 04:39:04;;;;;;;6.95;2.30;;;17.80;76.30;;;;;;5006277;28;20046;-71
2022/08/24 04:41:31;;;;;;;7.50;2.50;;;17.80;76.20;;;;;;5009698;28;20601;-71
2022/08/24 04:44:04;;;;;;;7.88;2.60;;;17.80;76.30;;;;;;5009884;28;20050;-71
2022/08/24 04:46:32;;;;;;;4.07;2.35;;;17.70;76.50;;;;;;5002815;28;20049;-71
2022/08/24 04:48:59;;;;;;;6.70;2.67;;;17.80;76.30;;;;;;5019242;28;20188;-70
2022/08/24 04:51:26;;;;;;;8.27;2.58;;;17.80;76.10;;;;;;5035362;28;20495;-70
2022/08/24 04:53:53;;;;;;;8.55;2.83;;;17.80;75.70;;;;;;5008120;28;20049;-70
2022/08/24 04:56:24;;;;;;;6.35;2.78;;;17.80;76.50;;;;;;5025722;28;20042;-70
2022/08/24 04:58:52;;;;;;;7.57;2.60;;;17.80;76.60;;;;;;5012827;28;20344;-70
2022/08/24 05:01:20;;;;;;;7.80;3.10;;;17.80;75.60;;;;;;5009616;28;20045;-70
2022/08/24 05:03:49;;;;;;;6.60;2.83;;;17.80;76.10;;;;;;5010480;28;20100;-71
2022/08/24 05:06:18;;;;;;;5.65;2.72;;;17.80;75.90;;;;;;5042011;28;20077;-69
2022/08/24 05:08:46;;;;;;;6.20;2.60;;;17.80;76.20;;;;;;5014979;28;20077;-70
2022/08/24 05:11:14;;;;;;;5.65;2.70;;;17.80;76.20;;;;;;4969143;28;20153;-70
2022/08/24 05:13:41;;;;;;;8.27;2.90;;;17.80;76.80;;;;;;5008048;28;20100;-71
2022/08/24 05:16:12;;;;;;;4.97;2.75;;;17.90;76.30;;;;;;4992590;28;20093;-70
2022/08/24 05:18:40;;;;;;;6.07;2.60;;;17.90;76.00;;;;;;5027875;28;20084;-70
2022/08/24 05:21:12;;;;;;;4.53;2.55;;;18.00;76.00;;;;;;5007704;28;20064;-71
2022/08/24 05:23:42;;;;;;;7.22;2.72;;;18.10;75.70;;;;;;5009333;28;20530;-71
2022/08/24 05:26:17;;;;;;;5.95;2.85;;;18.10;75.70;;;;;;5023792;28;20479;-70
2022/08/24 05:28:44;;;;;;;4.82;2.75;;;18.20;75.80;;;;;;5009557;28;20061;-70
2022/08/24 05:31:19;;;;;;;6.75;2.88;;;18.20;75.40;;;;;;5024605;28;20124;-71
2022/08/24 05:33:47;;;;;;;7.13;2.65;;;18.10;76.60;;;;;;5045424;28;20474;-70
2022/08/24 05:36:30;;;;;;;7.03;3.15;;;18.20;76.00;;;;;;4994108;28;20476;-70
2022/08/24 05:38:59;;;;;;;6.40;3.08;;;18.10;76.00;;;;;;4992764;28;20510;-71
2022/08/24 05:41:26;;;;;;;8.48;2.60;;;18.20;76.60;;;;;;5044751;28;20056;-70
2022/08/24 05:43:53;;;;;;;6.47;2.90;;;18.20;76.30;;;;;;4997978;28;20488;-71
2022/08/24 05:46:20;;;;;;;7.10;3.30;;;18.30;75.80;;;;;;5044333;28;20046;-70
2022/08/24 05:48:47;;;;;;;7.45;3.05;;;18.30;75.70;;;;;;5002936;28;20057;-70
2022/08/24 05:51:14;;;;;;;6.38;2.80;;;18.30;76.20;;;;;;5004247;28;20084;-69
2022/08/24 05:53:41;;;;;;;7.07;3.17;;;18.20;76.50;;;;;;5026948;28;20049;-69
2022/08/24 05:56:10;;;;;;;6.40;2.97;;;18.20;77.00;;;;;;5046949;28;20046;-69
2022/08/24 05:58:37;;;;;;;6.93;2.88;;;18.20;77.30;;;;;;5016119;28;20445;-69
2022/08/24 06:01:30;;;;;;;4.88;3.15;;;18.30;77.50;;;;;;5033757;28;20527;-69
2022/08/24 06:03:57;;;;;;;9.05;3.50;;;18.30;77.50;;;;;;5016709;28;20103;-69
2022/08/24 06:06:25;;;;;;;6.07;3.30;;;18.40;76.90;;;;;;5017848;28;20111;-69
2022/08/24 06:08:55;;;;;;;3.88;2.80;;;18.50;76.50;;;;;;5019379;28;20091;-71
2022/08/24 06:11:26;;;;;;;6.65;2.92;;;18.60;76.50;;;;;;5023032;28;20053;-70
2022/08/24 06:13:53;;;;;;;5.50;3.03;;;18.60;76.70;;;;;;5025020;28;20128;-71
2022/08/24 06:16:21;;;;;;;9.13;2.90;;;18.70;77.00;;;;;;5026104;28;20503;-69
2022/08/24 06:18:48;;;;;;;8.50;3.00;;;18.70;77.20;;;;;;5018027;28;20456;-70
2022/08/24 06:21:17;;;;;;;4.45;3.00;;;18.80;76.80;;;;;;5003019;28;20123;-69
2022/08/24 06:23:44;;;;;;;7.63;3.20;;;18.90;76.40;;;;;;5001639;28;20099;-69
2022/08/24 06:28:57;;;;;;;5.68;2.80;;;19.00;76.90;;;;;;5016984;28;20057;-69
2022/08/24 06:31:24;;;;;;;7.68;3.08;;;19.00;77.30;;;;;;5006236;28;20156;-69
2022/08/24 06:33:51;;;;;;;6.47;3.17;;;19.10;77.10;;;;;;5023583;28;20052;-69
2022/08/24 06:36:18;;;;;;;8.23;3.05;;;19.20;76.90;;;;;;5027727;28;20488;-69
2022/08/24 06:38:45;;;;;;;7.78;3.00;;;19.20;76.60;;;;;;5024913;28;20045;-70
2022/08/24 06:41:13;;;;;;;6.40;3.10;;;19.30;76.70;;;;;;5022959;28;20096;-70
2022/08/24 06:43:40;;;;;;;8.82;3.42;;;19.40;76.60;;;;;;5005662;28;20431;-71
2022/08/24 06:46:07;;;;;;;6.78;2.90;;;19.50;76.60;;;;;;5019274;28;20050;-70
2022/08/24 06:48:34;;;;;;;7.72;2.75;;;19.50;76.30;;;;;;5024128;28;20071;-71
2022/08/24 06:51:10;;;;;;;8.00;3.00;;;19.60;76.70;;;;;;5021199;28;20103;-71
2022/08/24 06:53:38;;;;;;;7.95;2.80;;;19.70;76.80;;;;;;5026898;28;20099;-70
2022/08/24 06:56:05;;;;;;;6.88;2.72;;;19.80;76.20;;;;;;5039287;28;20037;-70
2022/08/24 06:58:33;;;;;;;7.72;3.30;;;19.80;76.20;;;;;;4989982;28;20423;-70
2022/08/24 07:01:14;;;;;;;6.45;3.35;;;19.90;75.90;;;;;;5025165;28;20148;-70
2022/08/24 07:03:42;;;;;;;7.55;3.10;;;20.00;75.70;;;;;;5005355;28;20049;-70
2022/08/24 07:06:09;;;;;;;5.38;3.13;;;20.10;75.20;;;;;;5020161;28;20502;-70
2022/08/24 07:08:36;;;;;;;12.00;2.92;;;20.10;74.80;;;;;;5011952;28;20054;-72
2022/08/24 07:11:04;;;;;;;6.00;2.67;;;20.20;74.80;;;;;;5025876;28;20048;-72
2022/08/24 07:13:31;;;;;;;9.50;2.67;;;20.30;74.40;;;;;;5024612;28;20546;-70
2022/08/24 07:15:59;;;;;;;8.65;2.90;;;20.40;74.30;;;;;;5039969;28;20042;-70
2022/08/24 07:18:27;;;;;;;10.23;2.97;;;20.50;74.40;;;;;;5033549;28;20124;-70
2022/08/24 07:20:55;;;;;;;10.18;3.53;;;20.60;74.30;;;;;;5015407;28;20125;-70
2022/08/24 07:23:24;;;;;;;7.28;3.20;;;20.60;74.00;;;;;;5021315;28;20050;-71
2022/08/24 07:25:51;;;;;;;6.80;2.97;;;20.70;73.80;;;;;;4983996;28;20187;-69
2022/08/24 07:28:18;;;;;;;7.60;2.55;;;20.80;73.70;;;;;;5012829;28;20056;-70
2022/08/24 07:30:45;;;;;;;6.68;2.70;;;20.90;74.00;;;;;;5016444;28;20467;-70
2022/08/24 07:33:12;;;;;;;7.85;2.45;;;20.90;73.60;;;;;;5023552;28;20513;-70
2022/08/24 07:35:39;;;;;;;8.77;2.70;;;21.10;73.30;;;;;;5024033;28;20041;-71
2022/08/24 07:38:07;;;;;;;7.10;2.85;;;21.10;73.20;;;;;;4996537;28;20045;-70
2022/08/24 07:40:36;;;;;;;7.95;3.40;;;21.30;72.80;;;;;;5025959;28;20111;-71
2022/08/24 07:43:03;;;;;;;7.82;3.20;;;21.30;72.30;;;;;;5004864;28;20049;-69
2022/08/24 07:45:32;;;;;;;6.82;2.65;;;21.40;72.30;;;;;;5013226;28;20053;-71
2022/08/24 07:48:01;;;;;;;6.68;2.60;;;21.50;72.40;;;;;;5018301;28;20046;-69
2022/08/24 07:50:29;;;;;;;8.10;2.70;;;21.60;72.30;;;;;;5030596;28;20073;-71
2022/08/24 07:52:56;;;;;;;7.22;2.83;;;21.60;72.10;;;;;;5010016;28;20055;-69
2022/08/24 07:55:24;;;;;;;8.57;2.80;;;21.70;71.80;;;;;;5027110;28;20045;-69
2022/08/24 07:57:51;;;;;;;10.00;2.93;;;21.90;71.30;;;;;;5010582;28;20145;-71
2022/08/24 08:00:18;;;;;;;6.15;2.85;;;22.00;70.90;;;;;;5012537;28;20053;-70
2022/08/24 08:02:46;;;;;;;8.27;2.70;;;22.10;70.60;;;;;;5005901;28;20104;-70
2022/08/24 08:05:18;;;;;;;7.30;2.90;;;22.10;69.40;;;;;;5013583;28;20731;-70
2022/08/24 08:07:45;;;;;;;7.38;2.55;;;22.20;68.50;;;;;;5038588;28;20608;-69
2022/08/24 08:10:12;;;;;;;5.47;2.22;;;22.30;68.20;;;;;;5029134;28;20060;-69
2022/08/24 08:12:38;;;;;;;5.97;2.58;;;22.40;67.30;;;;;;5013948;28;20080;-69
2022/08/24 08:15:07;;;;;;;8.13;2.28;;;22.50;67.20;;;;;;5023337;28;20073;-70
2022/08/24 08:17:36;;;;;;;7.05;2.42;;;22.60;66.60;;;;;;5013735;28;20132;-69
2022/08/24 08:20:05;;;;;;;7.55;2.58;;;22.80;66.40;;;;;;5018954;28;20049;-69
2022/08/24 08:25:18;;;;;;;5.85;2.33;;;22.90;63.60;;;;;;5021117;28;20042;-71
2022/08/24 08:27:45;;;;;;;6.30;2.25;;;22.90;63.00;;;;;;5020938;28;20061;-68
2022/08/24 08:30:12;;;;;;;8.47;2.70;;;23.00;63.70;;;;;;5016302;28;20559;-70
2022/08/24 08:32:39;;;;;;;6.75;2.33;;;23.10;62.70;;;;;;4998542;28;20280;-69
2022/08/24 08:35:07;;;;;;;4.38;1.98;;;23.10;62.80;;;;;;5011979;28;20041;-71
2022/08/24 08:37:34;;;;;;;4.93;2.50;;;23.20;59.70;;;;;;5002068;28;20045;-69
2022/08/24 08:40:03;;;;;;;9.85;1.95;;;23.30;60.40;;;;;;4997737;28;20293;-70
2022/08/24 08:42:43;;;;;;;5.25;2.00;;;23.30;60.90;;;;;;4994486;28;20079;-71
2022/08/24 08:45:55;;;;;;;4.95;2.10;;;23.40;59.40;;;;;;5005478;28;20049;-69
2022/08/24 08:48:46;;;;;;;11.27;2.53;;;23.40;59.90;;;;;;4986285;28;20141;-69
2022/08/24 08:52:04;;;;;;;6.47;2.00;;;23.50;60.00;;;;;;5019552;28;20072;-70
2022/08/24 08:54:51;;;;;;;5.88;1.90;;;23.50;60.60;;;;;;5026308;28;20129;-70
2022/08/24 08:57:35;;;;;;;5.22;2.10;;;23.70;60.20;;;;;;5026082;28;20612;-70
2022/08/24 09:00:23;;;;;;;5.28;2.30;;;23.70;59.10;;;;;;5030421;28;20046;-70
2022/08/24 09:03:34;;;;;;;9.13;3.05;;;23.80;59.10;;;;;;5026529;28;20433;-70
2022/08/24 09:06:25;;;;;;;4.60;2.00;;;23.80;59.70;;;;;;4945595;28;20241;-69
2022/08/24 09:09:28;;;;;;;4.72;2.00;;;23.90;58.70;;;;;;4929289;29;20074;-69
2022/08/24 09:12:27;;;;;;;4.97;2.05;;;23.90;58.30;;;;;;5019667;28;20071;-69
2022/08/24 09:15:14;;;;;;;4.65;2.20;;;24.00;58.50;;;;;;5012206;28;20438;-69
2022/08/24 09:18:10;;;;;;;4.53;2.35;;;24.00;58.80;;;;;;5013546;28;20037;-70
2022/08/24 09:21:06;;;;;;;6.07;1.95;;;24.20;57.80;;;;;;5028709;28;20049;-71
2022/08/24 09:24:11;;;;;;;4.30;2.20;;;24.30;56.90;;;;;;5015397;28;20038;-70
2022/08/24 09:26:48;;;;;;;4.32;1.80;;;24.30;56.80;;;;;;5035207;28;20147;-69
2022/08/24 09:29:36;;;;;;;3.72;1.90;;;24.30;56.20;;;;;;5011568;28;20049;-69
2022/08/24 09:32:21;;;;;;;3.03;1.60;;;24.30;55.20;;;;;;5020956;28;20046;-70
2022/08/24 09:35:01;;;;;;;5.18;1.90;;;24.40;55.30;;;;;;5016532;28;20042;-69
2022/08/24 09:37:43;;;;;;;2.92;1.90;;;24.50;55.50;;;;;;5022496;28;20067;-69
2022/08/24 09:40:35;;;;;;;5.20;2.03;;;24.50;55.30;;;;;;5014002;28;20046;-68
2022/08/24 09:43:39;;;;;;;4.75;1.70;;;24.60;55.30;;;;;;5045427;28;20048;-69
2022/08/24 09:46:42;;;;;;;5.22;1.92;;;24.70;55.60;;;;;;5021425;28;20403;-70
2022/08/24 09:49:45;;;;;;;5.47;1.90;;;24.70;55.60;;;;;;5029056;28;20053;-70
2022/08/24 09:52:23;;;;;;;5.75;2.10;;;24.90;55.20;;;;;;5023598;28;20052;-69
2022/08/24 09:55:27;;;;;;;3.15;1.80;;;25.00;54.40;;;;;;5019882;28;20045;-69
2022/08/24 09:58:23;;;;;;;4.90;2.38;;;25.10;54.20;;;;;;5017619;28;20045;-69
2022/08/24 10:01:21;;;;;;;6.75;2.20;;;25.20;54.90;;;;;;5012032;28;20057;-71
2022/08/24 10:04:18;;;;;;;3.53;1.83;;;25.30;53.80;;;;;;5030085;28;20051;-70
2022/08/24 10:07:13;;;;;;;4.68;1.98;;;25.40;53.30;;;;;;5024499;28;20049;-71
2022/08/24 10:10:16;;;;;;;4.30;2.50;;;25.50;54.00;;;;;;5002313;28;20391;-70
2022/08/24 10:13:10;;;;;;;3.78;1.70;;;25.60;53.40;;;;;;5010514;28;20049;-70
2022/08/24 10:16:16;;;;;;;4.20;2.00;;;25.70;53.80;;;;;;5049057;28;20439;-69
2022/08/24 10:19:09;;;;;;;6.45;2.25;;;25.90;52.90;;;;;;5010496;28;20550;-69
2022/08/24 10:22:07;;;;;;;6.97;2.38;;;25.90;52.30;;;;;;5011245;28;20132;-72
2022/08/24 10:24:56;;;;;;;7.75;1.70;;;26.00;52.80;;;;;;5015061;28;20052;-70
2022/08/24 10:27:54;;;;;;;4.35;2.10;;;26.20;53.40;;;;;;5012434;28;20065;-71
2022/08/24 10:30:41;;;;;;;;;;;26.20;52.00;;;;;;5026743;28;20042;-69
2022/08/24 10:33:27;;;;;;;2.83;1.70;;;26.20;51.40;;;;;;5018691;28;19956;-71
2022/08/24 10:36:31;;;;;;;6.45;1.80;;;26.30;50.80;;;;;;4995502;28;20405;-70
2022/08/24 10:43:32;;;;;;;4.07;1.70;;;26.50;51.60;;;;;;5016855;28;20093;-70
2022/08/24 10:45:31;;;;;;;3.47;1.65;;;26.60;52.40;;;;;;5030358;28;20099;-71
2022/08/24 10:48:42;;;;;;;3.42;1.58;;;26.60;52.40;;;;;;5045382;28;20053;-71
2022/08/24 10:51:36;;;;;;;10.10;2.80;;;26.80;49.70;;;;;;5001516;28;20394;-71
2022/08/24 10:54:03;;;;;;;5.47;2.15;;;26.80;49.40;;;;;;5004866;28;20660;-73
2022/08/24 10:57:07;;;;;;;4.32;1.55;;;27.00;48.80;;;;;;4982030;28;20418;-70
2022/08/24 10:59:42;;;;;;;4.35;1.90;;;27.10;48.20;;;;;;4975375;28;20042;-68
2022/08/24 11:02:32;;;;;;;4.88;1.70;;;27.20;48.50;;;;;;4993620;28;20062;-67
2022/08/24 11:05:00;;;;;;;4.07;1.70;;;27.20;49.20;;;;;;4973030;28;20042;-67
2022/08/24 11:07:27;;;;;;;3.67;1.60;;;27.30;49.70;;;;;;5022607;28;20049;-67
2022/08/24 11:10:00;;;;;;;4.07;1.70;;;27.40;48.80;;;;;;5003421;28;20519;-67
2022/08/24 11:12:35;;;;;;;6.53;1.70;;;27.50;49.40;;;;;;5004979;28;20308;-67
2022/08/24 11:15:33;;;;;;;5.78;2.05;;;27.60;48.80;;;;;;4992170;28;20049;-66
2022/08/24 11:17:59;;;;;;;;;;;27.60;45.30;;;;;;5014269;28;20148;-66
2022/08/24 11:20:38;;;;;;;4.20;1.70;;;27.70;46.80;;;;;;5007704;28;19920;-67
2022/08/24 11:23:09;;;;;;;2.47;1.70;;;27.80;46.90;;;;;;4980833;28;20069;-67
2022/08/24 11:25:37;;;;;;;2.75;1.52;;;27.90;48.80;;;;;;5002825;28;20045;-67
2022/08/24 11:28:22;;;;;;;5.28;1.70;;;28.00;47.40;;;;;;4994038;28;20622;-67
2022/08/24 11:30:49;;;;;;;4.28;1.80;;;28.10;47.10;;;;;;4995549;28;20468;-67
2022/08/24 11:33:31;;;;;;;6.63;2.05;;;28.20;44.70;;;;;;5042899;28;20056;-68
2022/08/24 11:35:59;;;;;;;3.88;1.67;;;28.20;45.80;;;;;;5024795;28;20046;-67
2022/08/24 11:38:33;;;;;;;6.28;1.90;;;28.30;45.30;;;;;;4998260;28;20050;-66
2022/08/24 11:41:21;;;;;;;2.90;1.45;;;28.40;45.20;;;;;;5012768;28;20052;-67
2022/08/24 11:44:28;;;;;;;4.68;1.40;;;28.50;46.90;;;;;;5021343;28;20131;-67
2022/08/24 11:47:03;;;;;;;5.35;1.92;;;28.50;45.20;;;;;;5000107;28;20073;-66
2022/08/24 11:49:58;;;;;;;6.40;2.15;;;28.50;44.60;;;;;;4969204;28;20193;-67
2022/08/24 11:52:51;;;;;;;2.97;1.63;;;28.50;45.10;;;;;;4970117;28;20472;-68
2022/08/24 11:55:31;;;;;;;7.22;2.00;;;28.60;45.40;;;;;;4976248;28;20043;-66
2022/08/24 11:58:42;;;;;;;5.30;2.15;;;28.50;44.60;;;;;;4969959;28;20166;-67
2022/08/24 12:01:43;;;;;;;4.28;1.90;;;28.60;44.70;;;;;;4963563;28;20050;-67
2022/08/24 12:04:36;;;;;;;6.32;2.10;;;28.60;44.30;;;;;;4953634;28;20035;-66
2022/08/24 12:07:14;;;;;;;8.02;2.08;;;28.70;45.20;;;;;;4968649;28;20066;-67
2022/08/24 12:09:54;;;;;;;5.10;1.85;;;28.60;45.40;;;;;;4963954;28;20748;-65
2022/08/24 12:12:45;;;;;;;5.45;1.90;;;28.40;45.30;;;;;;5005001;28;20427;-68
2022/08/24 12:15:28;;;;;;;4.53;1.80;;;28.50;45.70;;;;;;5001844;28;20056;-67
2022/08/24 12:18:04;;;;;;;7.85;1.83;;;28.50;44.90;;;;;;4965562;28;20052;-67
2022/08/24 12:20:41;;;;;;;4.80;1.90;;;28.40;44.90;;;;;;5025350;28;20479;-69
2022/08/24 12:23:12;;;;;;;;;;;28.50;44.60;;;;;;5015191;28;20046;-69
2022/08/24 12:28:45;;;;;;;4.88;1.80;;;29.30;43.20;;;;;;5049430;28;20696;-69
2022/08/24 12:31:21;;;;;;;11.48;1.70;;;29.40;42.70;;;;;;5053680;28;20759;-69
2022/08/24 12:33:50;;;;;;;4.95;1.70;;;29.60;41.50;;;;;;5043411;28;20073;-69
2022/08/24 12:37:14;;;;;;;6.57;2.05;;;29.70;41.70;;;;;;5009636;28;20472;-70
2022/08/24 12:40:07;;;;;;;3.30;1.90;;;29.90;39.70;;;;;;5017908;28;20049;-69
2022/08/24 12:42:47;;;;;;;4.22;1.70;;;30.10;41.50;;;;;;5011748;28;20502;-69
2022/08/24 12:45:15;;;;;;;9.77;1.70;;;30.30;41.60;;;;;;4993823;28;20104;-69
2022/08/24 12:48:08;;;;;;;9.85;2.30;;;30.50;40.70;;;;;;5013786;28;20061;-69
2022/08/24 12:50:56;;;;;;;6.63;1.95;;;30.50;40.20;;;;;;5019202;28;20049;-68
2022/08/24 12:53:44;;;;;;;5.35;2.00;;;30.60;41.30;;;;;;5028536;28;20050;-70
2022/08/24 12:56:22;;;;;;;7.63;2.10;;;30.80;41.00;;;;;;5018923;28;20061;-70
2022/08/24 12:59:15;;;;;;;6.75;2.28;;;30.70;39.00;;;;;;5033972;28;20095;-70
2022/08/24 13:01:47;;;;;;;5.00;1.70;;;30.70;39.60;;;;;;4985183;28;20115;-69
2022/08/24 13:04:34;;;;;;;4.55;1.95;;;30.90;40.50;;;;;;4994135;28;20099;-70
2022/08/24 13:07:10;;;;;;;6.30;2.10;;;31.00;39.40;;;;;;5021156;28;20151;-69
2022/08/24 13:10:07;;;;;;;4.38;2.03;;;31.30;40.80;;;;;;5011838;28;20060;-69
2022/08/24 13:15:22;;;;;;;6.45;2.00;;;31.30;38.70;;;;;;5023327;28;20049;-73
2022/08/24 13:17:57;;;;;;;4.38;1.80;;;31.50;39.10;;;;;;5022775;28;20050;-72
2022/08/24 13:20:27;;;;;;;2.95;1.55;;;31.60;38.90;;;;;;5031738;28;20112;-74
2022/08/24 13:23:04;;;;;;;8.13;1.58;;;31.70;37.20;;;;;;5024736;28;20350;-73
2022/08/24 13:25:55;;;;;;;5.03;1.80;;;31.80;36.80;;;;;;5022660;28;20550;-73
2022/08/24 13:28:20;;;;;;;4.95;1.65;;;32.40;36.90;;;;;;5027471;28;20062;-72
2022/08/24 13:30:52;;;;;;;2.88;1.55;;;33.10;35.90;;;;;;5037524;28;20621;-73
2022/08/24 13:33:46;;;;;;;3.22;1.48;;;33.20;35.30;;;;;;5029948;28;20476;-73
2022/08/24 13:36:35;;;;;;;5.18;1.80;;;33.20;36.60;;;;;;5025807;28;20844;-73
2022/08/24 13:39:39;;;;;;;8.32;1.70;;;33.10;34.90;;;;;;5034404;28;20552;-75
2022/08/24 13:42:37;;;;;;;3.35;1.55;;;33.10;35.80;;;;;;5021415;28;20056;-75
2022/08/24 13:45:25;;;;;;;4.43;1.60;;;33.20;35.00;;;;;;5008913;28;20152;-75